Time;durP1;ratioP1;P1;durP2;ratioP2;P2;SDS_P1;SDS_P2;PMS_P1;PMS_P2;Temp;Humidity;BMP_temperature;BMP_pressure;BME280_temperature;BME280_humidity;BME280_pressure;Samples;Min_cycle;Max_cycle;Signal;HPM_P1;HPM_P2
2023/09/21 00:01:23;;;;;;;0.75;0.75;;;19.20;99.90;;;;;;5029838;28;20206;-65
2023/09/21 00:03:51;;;;;;;2.35;0.90;;;19.10;99.90;;;;;;5026287;28;20208;-66
2023/09/21 00:06:19;;;;;;;1.55;1.02;;;19.10;99.90;;;;;;5028029;28;20299;-65
2023/09/21 00:08:48;;;;;;;0.95;0.85;;;19.20;99.90;;;;;;5029674;28;20200;-65
2023/09/21 00:11:18;;;;;;;1.30;0.98;;;19.30;99.90;;;;;;5027184;28;20690;-67
2023/09/21 00:13:46;;;;;;;2.45;1.40;;;19.00;99.90;;;;;;5029266;28;20200;-66
2023/09/21 00:16:18;;;;;;;1.42;1.33;;;19.20;99.90;;;;;;5028921;28;20236;-66
2023/09/21 00:18:46;;;;;;;1.42;1.08;;;19.20;99.90;;;;;;5023304;28;20676;-67
2023/09/21 00:21:15;;;;;;;1.70;0.98;;;19.10;99.90;;;;;;5025548;28;20568;-65
2023/09/21 00:23:46;;;;;;;1.33;0.85;;;19.10;99.90;;;;;;5016459;28;20201;-64
2023/09/21 00:26:14;;;;;;;1.45;1.08;;;19.30;99.90;;;;;;5027439;28;20220;-64
2023/09/21 00:28:43;;;;;;;1.10;1.00;;;19.20;99.90;;;;;;5019624;28;20201;-66
2023/09/21 00:31:12;;;;;;;1.13;0.90;;;19.30;99.90;;;;;;5024286;28;20213;-64
2023/09/21 00:33:42;;;;;;;1.20;1.05;;;19.10;99.90;;;;;;5029109;28;20235;-66
2023/09/21 00:36:13;;;;;;;1.27;1.05;;;19.30;99.90;;;;;;5032279;28;21795;-65
2023/09/21 00:38:41;;;;;;;1.67;1.25;;;19.40;99.90;;;;;;5033448;28;20631;-66
2023/09/21 00:41:09;;;;;;;3.28;1.33;;;19.20;99.90;;;;;;5022312;28;20316;-65
2023/09/21 00:43:37;;;;;;;2.75;1.33;;;19.30;99.90;;;;;;5032812;28;20204;-67
2023/09/21 00:46:05;;;;;;;2.53;1.10;;;19.30;99.90;;;;;;5032595;28;20224;-65
2023/09/21 00:48:38;;;;;;;1.00;0.90;;;19.20;99.90;;;;;;5032034;28;20703;-65
2023/09/21 00:51:12;;;;;;;2.25;1.25;;;19.10;99.90;;;;;;5029319;28;20208;-65
2023/09/21 00:53:44;;;;;;;1.20;1.08;;;19.20;99.90;;;;;;5029786;28;20204;-66
2023/09/21 00:56:17;;;;;;;1.45;1.17;;;19.20;99.90;;;;;;5028313;28;20233;-65
2023/09/21 00:58:48;;;;;;;2.35;1.27;;;19.30;99.90;;;;;;5032885;28;20231;-65
2023/09/21 01:01:27;;;;;;;1.83;0.95;;;19.10;99.90;;;;;;5029543;28;20312;-67
2023/09/21 01:03:58;;;;;;;1.38;1.10;;;19.00;99.90;;;;;;5027605;28;20584;-68
2023/09/21 01:06:27;;;;;;;1.17;1.00;;;19.00;99.90;;;;;;5030692;28;20228;-66
2023/09/21 01:08:56;;;;;;;1.55;1.20;;;19.00;99.90;;;;;;5032037;28;20212;-64
2023/09/21 01:11:25;;;;;;;1.30;1.10;;;19.00;99.90;;;;;;5031763;28;20197;-65
2023/09/21 01:13:53;;;;;;;1.60;1.10;;;19.10;99.90;;;;;;5029773;28;20213;-66
2023/09/21 01:16:23;;;;;;;1.13;0.95;;;18.90;99.90;;;;;;5031510;28;20231;-66
2023/09/21 01:18:52;;;;;;;1.23;1.05;;;19.00;99.90;;;;;;5026403;28;20212;-66
2023/09/21 01:21:34;;;;;;;1.75;0.98;;;18.80;99.90;;;;;;5036689;28;20220;-65
2023/09/21 01:24:05;;;;;;;1.15;1.05;;;18.90;99.90;;;;;;5028912;28;20205;-65
2023/09/21 01:26:34;;;;;;;1.10;1.00;;;18.90;99.90;;;;;;5029357;28;20283;-66
2023/09/21 01:29:01;;;;;;;2.95;0.93;;;18.80;99.90;;;;;;5031860;28;20213;-66
2023/09/21 01:31:29;;;;;;;1.55;1.05;;;18.80;99.90;;;;;;5030859;28;20319;-65
2023/09/21 01:33:59;;;;;;;3.95;1.20;;;18.80;99.90;;;;;;5031775;28;20212;-65
2023/09/21 01:36:28;;;;;;;1.35;1.10;;;19.00;99.90;;;;;;5026719;28;20224;-65
2023/09/21 01:38:56;;;;;;;4.40;1.40;;;19.00;99.90;;;;;;5028096;28;20209;-64
2023/09/21 01:41:26;;;;;;;1.30;1.15;;;19.00;99.90;;;;;;5026862;28;20900;-64
2023/09/21 01:43:54;;;;;;;1.45;1.13;;;18.80;99.90;;;;;;5030457;28;20212;-64
2023/09/21 01:46:22;;;;;;;2.60;1.00;;;18.70;99.90;;;;;;5034139;28;20232;-65
2023/09/21 01:48:51;;;;;;;2.75;1.00;;;18.70;99.90;;;;;;5031295;28;20618;-64
2023/09/21 01:51:20;;;;;;;1.58;1.00;;;18.60;99.90;;;;;;5027180;28;20663;-64
2023/09/21 01:53:48;;;;;;;1.50;1.13;;;18.60;99.90;;;;;;5036132;28;20205;-64
2023/09/21 01:56:16;;;;;;;2.58;1.10;;;18.80;99.90;;;;;;5033775;28;20244;-64
2023/09/21 01:58:46;;;;;;;1.55;1.27;;;18.70;99.90;;;;;;5032300;28;20733;-64
2023/09/21 02:01:16;;;;;;;1.40;1.30;;;18.90;99.90;;;;;;5029511;28;20220;-64
2023/09/21 02:03:45;;;;;;;1.55;1.15;;;18.90;99.90;;;;;;5032622;28;20209;-64
2023/09/21 02:06:13;;;;;;;1.20;1.10;;;18.80;99.90;;;;;;5026957;28;20235;-65
2023/09/21 02:08:41;;;;;;;1.50;1.20;;;18.70;99.90;;;;;;5028621;28;20228;-65
2023/09/21 02:11:10;;;;;;;2.28;1.23;;;18.60;99.90;;;;;;5017875;28;20671;-66
2023/09/21 02:13:38;;;;;;;1.30;0.95;;;18.50;99.90;;;;;;5031332;28;20214;-67
2023/09/21 02:16:09;;;;;;;1.85;1.10;;;18.60;99.90;;;;;;5031961;28;20714;-66
2023/09/21 02:18:37;;;;;;;1.73;1.10;;;18.50;99.90;;;;;;5032228;28;20205;-66
2023/09/21 02:21:08;;;;;;;1.00;0.90;;;18.60;99.90;;;;;;5018551;28;21015;-66
2023/09/21 02:23:38;;;;;;;1.60;1.10;;;18.60;99.90;;;;;;5020972;28;20216;-67
2023/09/21 02:26:07;;;;;;;3.03;1.40;;;18.60;99.90;;;;;;5025969;28;20302;-66
2023/09/21 02:28:34;;;;;;;1.20;1.10;;;18.50;99.90;;;;;;5023816;28;20835;-66
2023/09/21 02:31:03;;;;;;;0.80;0.80;;;18.50;99.90;;;;;;5023781;28;20666;-65
2023/09/21 02:33:34;;;;;;;1.98;1.20;;;18.80;99.90;;;;;;5016636;28;20292;-66
2023/09/21 02:36:03;;;;;;;1.67;1.25;;;18.80;99.90;;;;;;5020273;28;20640;-66
2023/09/21 02:38:31;;;;;;;4.32;1.45;;;18.60;99.90;;;;;;5026382;28;20232;-66
2023/09/21 02:41:00;;;;;;;1.50;1.00;;;18.70;99.90;;;;;;5030452;28;20221;-67
2023/09/21 02:43:29;;;;;;;1.30;1.20;;;18.80;99.90;;;;;;5030535;28;20209;-66
2023/09/21 02:45:57;;;;;;;1.40;1.20;;;18.90;99.90;;;;;;5030959;28;20764;-66
2023/09/21 02:48:25;;;;;;;2.22;1.13;;;18.80;99.90;;;;;;5030225;28;20667;-66
2023/09/21 02:50:55;;;;;;;1.10;1.00;;;18.80;99.90;;;;;;5024192;28;20201;-66
2023/09/21 02:53:23;;;;;;;1.30;1.20;;;19.00;99.90;;;;;;5025228;28;20213;-66
2023/09/21 02:55:52;;;;;;;1.10;1.00;;;19.00;99.90;;;;;;5020628;28;20225;-66
2023/09/21 02:58:20;;;;;;;1.42;0.90;;;18.90;99.90;;;;;;5026393;28;20212;-66
2023/09/21 03:00:49;;;;;;;1.35;1.13;;;19.00;99.90;;;;;;5029908;28;20225;-66
2023/09/21 03:03:20;;;;;;;1.40;1.10;;;18.90;99.90;;;;;;5029302;28;20205;-66
2023/09/21 03:05:52;;;;;;;1.30;1.20;;;18.90;99.90;;;;;;5030074;28;20293;-69
2023/09/21 03:08:22;;;;;;;2.20;1.40;;;18.80;99.90;;;;;;5029821;28;20246;-67
2023/09/21 03:10:53;;;;;;;1.77;1.20;;;18.80;99.90;;;;;;5026640;28;20278;-66
2023/09/21 03:13:22;;;;;;;2.58;1.10;;;18.80;99.90;;;;;;5030085;28;20235;-66
2023/09/21 03:15:52;;;;;;;1.40;1.10;;;18.80;99.90;;;;;;5028873;28;20299;-65
2023/09/21 03:18:24;;;;;;;2.05;1.35;;;18.80;99.90;;;;;;5030534;28;20279;-65
2023/09/21 03:20:53;;;;;;;1.80;1.00;;;18.90;99.90;;;;;;5029381;28;20220;-65
2023/09/21 03:23:23;;;;;;;2.38;1.30;;;18.70;99.90;;;;;;5027418;28;20582;-65
2023/09/21 03:25:53;;;;;;;1.88;1.20;;;18.60;99.90;;;;;;5029742;28;20231;-67
2023/09/21 03:28:24;;;;;;;1.33;0.82;;;18.60;99.90;;;;;;5029185;28;20296;-66
2023/09/21 03:30:56;;;;;;;2.15;1.15;;;18.70;99.90;;;;;;5029211;28;20204;-65
2023/09/21 03:33:25;;;;;;;1.45;1.30;;;18.70;99.90;;;;;;5029845;28;20567;-66
2023/09/21 03:35:53;;;;;;;1.15;1.05;;;18.80;99.90;;;;;;5063735;22;20260;-73
2023/09/21 03:38:24;;;;;;;1.30;1.10;;;18.80;99.90;;;;;;5044765;28;20210;-73
2023/09/21 03:40:52;;;;;;;1.85;1.65;;;18.90;99.90;;;;;;5048454;28;20235;-73
2023/09/21 03:43:22;;;;;;;1.15;0.93;;;18.80;99.90;;;;;;5044645;28;20200;-73
2023/09/21 03:45:50;;;;;;;2.33;1.05;;;18.80;99.90;;;;;;5043864;28;20219;-72
2023/09/21 03:48:18;;;;;;;1.20;0.90;;;18.80;99.90;;;;;;5049734;28;20200;-73
2023/09/21 03:50:52;;;;;;;1.17;1.00;;;18.90;99.90;;;;;;5043279;28;20231;-73
2023/09/21 03:53:20;;;;;;;2.58;1.40;;;18.80;99.90;;;;;;5049614;28;20638;-73
2023/09/21 03:55:50;;;;;;;1.10;1.00;;;18.80;99.90;;;;;;5047499;28;20226;-72
2023/09/21 03:58:19;;;;;;;2.40;1.40;;;18.70;99.90;;;;;;5045735;28;20210;-73
2023/09/21 04:00:48;;;;;;;2.45;1.50;;;18.60;99.90;;;;;;5048516;28;20380;-73
2023/09/21 04:03:16;;;;;;;2.70;1.23;;;18.30;99.90;;;;;;5047555;28;20288;-72
2023/09/21 04:05:45;;;;;;;1.63;1.00;;;18.40;99.90;;;;;;5045889;28;20219;-72
2023/09/21 04:08:14;;;;;;;1.20;1.10;;;18.50;99.90;;;;;;5047733;28;20235;-72
2023/09/21 04:10:42;;;;;;;1.80;1.10;;;18.10;99.90;;;;;;5048027;28;20212;-72
2023/09/21 04:13:11;;;;;;;1.80;1.50;;;18.10;99.90;;;;;;5047658;28;20265;-72
2023/09/21 04:15:39;;;;;;;1.38;1.15;;;18.30;99.90;;;;;;5042163;28;20220;-72
2023/09/21 04:18:09;;;;;;;1.02;0.93;;;18.50;99.90;;;;;;5048339;28;20202;-73
2023/09/21 04:20:40;;;;;;;3.25;1.35;;;18.60;99.90;;;;;;5048736;28;20203;-72
2023/09/21 04:23:09;;;;;;;2.00;1.27;;;18.80;99.90;;;;;;5049670;28;20216;-73
2023/09/21 04:25:38;;;;;;;1.60;1.50;;;18.70;99.90;;;;;;5048431;28;20231;-72
2023/09/21 04:28:07;;;;;;;1.35;0.98;;;18.50;99.90;;;;;;5046762;28;20226;-73
2023/09/21 04:30:36;;;;;;;2.50;1.50;;;18.50;99.90;;;;;;5048772;28;20199;-73
2023/09/21 04:33:04;;;;;;;1.90;1.25;;;18.50;99.90;;;;;;5044967;28;20196;-75
2023/09/21 04:35:33;;;;;;;1.98;1.33;;;18.40;99.90;;;;;;5048814;28;20239;-74
2023/09/21 04:38:03;;;;;;;2.92;1.67;;;18.50;99.90;;;;;;5047732;28;20218;-73
2023/09/21 04:40:31;;;;;;;2.75;1.60;;;18.10;99.90;;;;;;5048227;28;20756;-73
2023/09/21 04:42:59;;;;;;;1.30;1.13;;;17.90;99.90;;;;;;5042467;28;20227;-73
2023/09/21 04:45:27;;;;;;;1.55;1.20;;;17.80;99.90;;;;;;5044815;28;20234;-72
2023/09/21 04:48:03;;;;;;;1.13;0.90;;;18.00;99.90;;;;;;5045020;28;20275;-73
2023/09/21 04:50:31;;;;;;;1.40;1.25;;;18.20;99.90;;;;;;5049460;28;20342;-72
2023/09/21 04:52:59;;;;;;;2.95;1.35;;;18.40;99.90;;;;;;5046337;28;20205;-73
2023/09/21 04:55:27;;;;;;;2.58;1.52;;;18.20;99.90;;;;;;5039198;28;20226;-72
2023/09/21 04:57:55;;;;;;;2.30;1.40;;;18.30;99.90;;;;;;5038172;28;20658;-76
2023/09/21 05:00:24;;;;;;;1.50;1.40;;;18.50;99.90;;;;;;5039327;28;20763;-73
2023/09/21 05:02:52;;;;;;;2.20;1.20;;;18.80;99.90;;;;;;5038100;28;20317;-73
2023/09/21 05:05:24;;;;;;;2.10;1.75;;;18.90;99.90;;;;;;5037026;28;20235;-74
2023/09/21 05:07:53;;;;;;;1.80;1.40;;;18.90;99.90;;;;;;5038879;28;20220;-75
2023/09/21 05:10:21;;;;;;;1.75;1.35;;;18.90;99.90;;;;;;5040048;28;20813;-73
2023/09/21 05:12:51;;;;;;;2.33;1.52;;;18.70;99.90;;;;;;5040420;28;20212;-72
2023/09/21 05:15:20;;;;;;;1.80;0.85;;;18.70;99.90;;;;;;5039918;28;20310;-74
2023/09/21 05:17:48;;;;;;;1.60;1.50;;;18.80;99.90;;;;;;5041284;28;20211;-74
2023/09/21 05:20:17;;;;;;;1.20;1.10;;;19.00;99.90;;;;;;5040358;28;20212;-74
2023/09/21 05:22:47;;;;;;;2.70;1.73;;;19.10;99.90;;;;;;5040705;28;20804;-74
2023/09/21 05:25:15;;;;;;;2.67;1.80;;;19.10;99.90;;;;;;5039335;28;20289;-74
2023/09/21 05:27:43;;;;;;;1.40;1.30;;;19.10;99.90;;;;;;5040989;28;20211;-73
2023/09/21 05:30:13;;;;;;;2.28;1.63;;;19.30;99.90;;;;;;5041988;28;20215;-73
2023/09/21 05:32:42;;;;;;;1.50;1.40;;;19.30;99.90;;;;;;5041989;28;20258;-73
2023/09/21 05:35:15;;;;;;;1.45;1.30;;;19.30;99.90;;;;;;5039905;28;20748;-73
2023/09/21 05:37:44;;;;;;;1.85;1.30;;;19.20;99.90;;;;;;5042123;28;20245;-76
2023/09/21 05:40:14;;;;;;;4.10;1.25;;;19.20;99.90;;;;;;5042250;28;20295;-74
2023/09/21 05:42:44;;;;;;;1.58;1.45;;;19.30;99.90;;;;;;5041532;28;20314;-73
2023/09/21 05:45:12;;;;;;;3.47;1.30;;;19.40;99.90;;;;;;5040031;28;20232;-74
2023/09/21 05:47:40;;;;;;;1.42;1.33;;;19.10;99.90;;;;;;5042113;28;20595;-74
2023/09/21 05:50:08;;;;;;;2.63;1.25;;;19.20;99.90;;;;;;5041683;28;20616;-74
2023/09/21 05:52:36;;;;;;;2.53;1.60;;;19.20;99.90;;;;;;5041279;28;21361;-74
2023/09/21 05:55:05;;;;;;;1.70;1.60;;;19.20;99.90;;;;;;5039373;28;20734;-74
2023/09/21 05:57:35;;;;;;;1.50;1.40;;;19.40;99.90;;;;;;5041580;28;20235;-73
2023/09/21 06:00:03;;;;;;;1.30;1.20;;;19.40;99.90;;;;;;5040800;28;20259;-73
2023/09/21 06:02:31;;;;;;;1.58;1.40;;;19.40;99.90;;;;;;5040739;28;20238;-73
2023/09/21 06:04:59;;;;;;;1.45;1.23;;;19.30;99.90;;;;;;5039715;28;20228;-73
2023/09/21 06:07:27;;;;;;;1.75;1.60;;;19.50;99.90;;;;;;5041629;28;20218;-73
2023/09/21 06:09:55;;;;;;;2.60;1.60;;;19.40;99.90;;;;;;5041216;28;20219;-71
2023/09/21 06:12:25;;;;;;;1.70;1.60;;;19.30;99.90;;;;;;5039275;28;20207;-73
2023/09/21 06:14:57;;;;;;;2.17;1.80;;;19.50;99.90;;;;;;5037564;28;20232;-74
2023/09/21 06:17:26;;;;;;;1.73;1.63;;;19.60;99.90;;;;;;5040626;28;20204;-75
2023/09/21 06:19:54;;;;;;;2.47;1.52;;;19.70;99.90;;;;;;5040038;28;20220;-73
2023/09/21 06:22:22;;;;;;;5.40;2.10;;;19.80;99.90;;;;;;5038865;28;20224;-72
2023/09/21 06:24:50;;;;;;;3.33;1.40;;;19.90;99.90;;;;;;5037031;28;20219;-74
2023/09/21 06:27:18;;;;;;;2.25;1.20;;;19.80;99.90;;;;;;5040973;28;20221;-75
2023/09/21 06:29:46;;;;;;;1.58;1.48;;;19.90;99.90;;;;;;5041993;28;20211;-73
2023/09/21 06:32:18;;;;;;;3.25;1.60;;;20.00;99.90;;;;;;5040996;28;20208;-73
2023/09/21 06:34:48;;;;;;;2.40;1.42;;;20.10;99.90;;;;;;5039684;28;20244;-74
2023/09/21 06:37:18;;;;;;;2.08;1.55;;;20.10;99.90;;;;;;5040262;28;20222;-72
2023/09/21 06:39:46;;;;;;;1.50;1.40;;;20.10;99.90;;;;;;5040670;28;20220;-74
2023/09/21 06:42:15;;;;;;;1.67;1.58;;;20.00;99.90;;;;;;5040262;28;20208;-74
2023/09/21 06:44:43;;;;;;;1.15;1.05;;;19.90;99.90;;;;;;5038516;28;20245;-72
2023/09/21 06:47:12;;;;;;;1.88;1.67;;;20.00;99.90;;;;;;5040104;28;20643;-72
2023/09/21 06:49:43;;;;;;;2.10;1.88;;;20.10;99.90;;;;;;5039498;28;20281;-71
2023/09/21 06:52:13;;;;;;;2.83;2.00;;;20.20;99.90;;;;;;5039923;28;20297;-72
2023/09/21 06:54:41;;;;;;;2.88;1.85;;;20.30;99.90;;;;;;5038350;28;20215;-73
2023/09/21 06:57:09;;;;;;;2.45;1.60;;;20.40;99.90;;;;;;5039148;28;20203;-71
2023/09/21 06:59:38;;;;;;;1.80;1.40;;;20.40;99.90;;;;;;5039735;28;20764;-72
2023/09/21 07:02:07;;;;;;;4.07;1.73;;;20.30;99.90;;;;;;5039644;28;20216;-70
2023/09/21 07:04:35;;;;;;;2.83;2.00;;;20.10;99.90;;;;;;5037630;28;20255;-73
2023/09/21 07:07:06;;;;;;;2.33;1.70;;;20.10;99.90;;;;;;5039687;28;20208;-72
2023/09/21 07:09:35;;;;;;;3.78;1.90;;;20.00;99.90;;;;;;5040268;28;20232;-70
2023/09/21 07:12:04;;;;;;;3.92;2.22;;;19.90;99.90;;;;;;5039906;28;20645;-67
2023/09/21 07:14:35;;;;;;;2.58;2.20;;;20.00;99.90;;;;;;5031124;28;20223;-68
2023/09/21 07:17:05;;;;;;;2.85;1.80;;;20.10;99.90;;;;;;5038331;28;20207;-68
2023/09/21 07:19:34;;;;;;;2.05;1.80;;;20.10;99.90;;;;;;5038850;28;20204;-68
2023/09/21 07:22:02;;;;;;;2.35;1.60;;;20.00;99.90;;;;;;5039012;28;20212;-69
2023/09/21 07:24:32;;;;;;;2.90;1.45;;;20.00;99.90;;;;;;5035547;28;20670;-68
2023/09/21 07:27:01;;;;;;;1.80;1.45;;;20.20;99.90;;;;;;5036370;28;20200;-68
2023/09/21 07:29:30;;;;;;;2.28;1.65;;;20.20;99.90;;;;;;5037743;28;20230;-69
2023/09/21 07:31:59;;;;;;;2.33;2.05;;;20.20;99.90;;;;;;5036830;28;20246;-69
2023/09/21 07:34:29;;;;;;;2.75;2.05;;;20.20;99.90;;;;;;5034237;28;20196;-68
2023/09/21 07:36:57;;;;;;;5.68;2.90;;;20.20;99.90;;;;;;5037403;28;20249;-69
2023/09/21 07:39:25;;;;;;;2.65;1.63;;;20.20;99.90;;;;;;5037729;28;20262;-70
2023/09/21 07:41:55;;;;;;;1.55;1.45;;;20.20;99.90;;;;;;5037554;28;20216;-69
2023/09/21 07:44:23;;;;;;;3.35;1.83;;;20.30;99.90;;;;;;5035162;28;20286;-71
2023/09/21 07:46:52;;;;;;;2.40;1.98;;;20.20;99.90;;;;;;5037340;28;21136;-71
2023/09/21 07:49:20;;;;;;;2.50;1.77;;;20.10;99.90;;;;;;5035077;28;20205;-69
2023/09/21 07:51:49;;;;;;;1.60;1.50;;;19.60;99.90;;;;;;5037254;28;20216;-68
2023/09/21 07:54:17;;;;;;;2.53;2.00;;;19.30;99.90;;;;;;5035371;28;20207;-70
2023/09/21 07:56:46;;;;;;;2.70;1.88;;;19.00;99.90;;;;;;5037491;28;20239;-70
2023/09/21 07:59:16;;;;;;;1.70;1.58;;;18.90;99.90;;;;;;5037284;28;20262;-70
2023/09/21 08:01:44;;;;;;;2.45;1.70;;;18.90;99.90;;;;;;5038182;28;20702;-68
2023/09/21 08:04:12;;;;;;;2.33;1.38;;;18.90;99.90;;;;;;5035210;28;20223;-69
2023/09/21 08:06:41;;;;;;;2.70;1.63;;;19.00;99.90;;;;;;5037442;28;20234;-68
2023/09/21 08:09:09;;;;;;;2.35;1.75;;;19.10;99.90;;;;;;5037549;28;20214;-69
2023/09/21 08:11:53;;;;;;;2.38;2.00;;;19.20;99.90;;;;;;5037614;28;20208;-71
2023/09/21 08:14:23;;;;;;;1.52;1.42;;;19.50;99.90;;;;;;5035855;28;20208;-69
2023/09/21 08:16:53;;;;;;;4.30;1.45;;;19.60;99.90;;;;;;5038022;28;20212;-68
2023/09/21 08:19:21;;;;;;;3.30;1.98;;;19.90;99.90;;;;;;5038673;28;20705;-69
2023/09/21 08:21:50;;;;;;;2.65;1.70;;;19.90;99.90;;;;;;5038084;28;20246;-70
2023/09/21 08:24:18;;;;;;;3.28;1.58;;;20.00;99.90;;;;;;5034226;28;20690;-68
2023/09/21 08:26:46;;;;;;;2.67;2.38;;;20.00;99.90;;;;;;5037759;28;20231;-69
2023/09/21 08:29:14;;;;;;;3.45;1.20;;;20.20;99.90;;;;;;5036951;28;20208;-69
2023/09/21 08:31:45;;;;;;;2.63;2.42;;;20.00;99.90;;;;;;5037505;28;20297;-70
2023/09/21 08:34:13;;;;;;;4.13;1.98;;;20.20;99.90;;;;;;5035504;28;20235;-68
2023/09/21 08:36:44;;;;;;;4.28;1.48;;;20.10;99.90;;;;;;5037403;28;20333;-71
2023/09/21 08:39:12;;;;;;;1.55;1.35;;;20.20;99.90;;;;;;5032691;28;20207;-67
2023/09/21 08:41:45;;;;;;;1.40;1.30;;;20.40;99.90;;;;;;5037824;28;20744;-67
2023/09/21 08:44:13;;;;;;;2.75;1.65;;;20.50;99.90;;;;;;5035585;28;20739;-70
2023/09/21 08:46:41;;;;;;;2.17;1.75;;;20.40;99.90;;;;;;5041389;28;20238;-68
2023/09/21 08:49:13;;;;;;;2.35;1.48;;;20.40;99.90;;;;;;5039222;28;20295;-67
2023/09/21 08:51:42;;;;;;;1.40;1.10;;;20.50;99.90;;;;;;5041729;28;20200;-67
2023/09/21 08:54:13;;;;;;;2.42;1.33;;;20.50;99.90;;;;;;5037833;28;20227;-67
2023/09/21 08:56:43;;;;;;;2.92;1.90;;;20.50;99.90;;;;;;5040469;28;20230;-67
2023/09/21 08:59:11;;;;;;;2.65;1.00;;;20.50;99.90;;;;;;5041325;28;20207;-67
2023/09/21 09:01:40;;;;;;;3.63;1.48;;;20.60;99.90;;;;;;5041435;28;20222;-67
2023/09/21 09:04:10;;;;;;;1.58;1.38;;;20.60;99.90;;;;;;5038541;28;20273;-68
2023/09/21 09:06:39;;;;;;;2.92;1.70;;;20.70;99.90;;;;;;5039464;28;20835;-67
2023/09/21 09:09:08;;;;;;;1.20;1.13;;;20.70;99.90;;;;;;5039997;28;20303;-71
2023/09/21 09:11:37;;;;;;;1.92;1.33;;;20.80;99.90;;;;;;5040029;28;20322;-71
2023/09/21 09:14:12;;;;;;;3.60;1.65;;;21.00;99.90;;;;;;5038632;28;20208;-71
2023/09/21 09:16:40;;;;;;;2.35;1.83;;;21.20;99.90;;;;;;5040692;28;20215;-70
2023/09/21 09:19:09;;;;;;;2.40;1.52;;;21.30;99.90;;;;;;5040787;28;20283;-71
2023/09/21 09:21:39;;;;;;;1.38;1.25;;;21.50;99.90;;;;;;5040264;28;20220;-72
2023/09/21 09:24:08;;;;;;;4.40;2.00;;;21.70;99.90;;;;;;5037928;28;20231;-70
2023/09/21 09:26:36;;;;;;;2.05;1.35;;;21.70;99.90;;;;;;5039709;28;20764;-71
2023/09/21 09:29:06;;;;;;;2.75;1.70;;;21.80;99.90;;;;;;5040002;28;20215;-72
2023/09/21 09:31:37;;;;;;;1.83;1.52;;;22.10;99.90;;;;;;5040619;28;20270;-71
2023/09/21 09:34:05;;;;;;;1.90;1.40;;;22.30;99.90;;;;;;5037912;28;20212;-69
2023/09/21 09:36:34;;;;;;;5.13;1.63;;;22.60;99.90;;;;;;5039616;28;20911;-68
2023/09/21 09:39:08;;;;;;;1.50;1.40;;;22.90;99.90;;;;;;5039393;28;20211;-72
2023/09/21 09:41:36;;;;;;;2.25;1.38;;;23.30;99.90;;;;;;5039705;28;20198;-70
2023/09/21 09:44:08;;;;;;;2.55;1.90;;;23.60;99.90;;;;;;5037954;28;20249;-71
2023/09/21 09:46:42;;;;;;;1.30;1.20;;;23.90;99.90;;;;;;5040283;28;20223;-67
2023/09/21 09:49:11;;;;;;;2.35;1.63;;;24.10;99.90;;;;;;5040195;28;20233;-68
2023/09/21 09:51:44;;;;;;;2.97;1.27;;;24.30;99.90;;;;;;5040062;28;20203;-67
2023/09/21 09:54:16;;;;;;;2.95;1.33;;;24.70;99.90;;;;;;5038539;28;20277;-70
2023/09/21 09:56:45;;;;;;;2.85;1.70;;;24.70;99.90;;;;;;5038253;28;20631;-67
2023/09/21 09:59:13;;;;;;;1.98;1.60;;;24.60;99.90;;;;;;5039231;28;20718;-71
2023/09/21 10:01:42;;;;;;;2.13;1.35;;;24.50;99.90;;;;;;5040321;28;20273;-69
2023/09/21 10:04:11;;;;;;;2.38;1.23;;;24.40;99.90;;;;;;5037823;28;20207;-69
2023/09/21 10:06:41;;;;;;;2.25;1.77;;;24.10;99.90;;;;;;5040163;28;20718;-69
2023/09/21 10:09:10;;;;;;;1.30;1.08;;;24.10;99.90;;;;;;5039189;28;20211;-69
2023/09/21 10:11:44;;;;;;;1.92;1.73;;;23.90;99.90;;;;;;5039398;28;20212;-69
2023/09/21 10:14:14;;;;;;;1.25;1.15;;;23.90;99.90;;;;;;5037650;28;20702;-70
2023/09/21 10:16:49;;;;;;;2.33;1.75;;;24.10;99.90;;;;;;5039707;28;20235;-73
2023/09/21 10:19:17;;;;;;;2.45;1.45;;;24.10;99.90;;;;;;5040455;28;20196;-68
2023/09/21 10:21:45;;;;;;;2.78;1.02;;;24.10;99.90;;;;;;5039831;28;20266;-69
2023/09/21 10:24:18;;;;;;;1.52;1.42;;;24.30;99.90;;;;;;5037794;28;21462;-68
2023/09/21 10:26:50;;;;;;;1.55;1.15;;;24.30;99.90;;;;;;5038673;28;20235;-70
2023/09/21 10:29:20;;;;;;;2.38;1.42;;;24.30;99.90;;;;;;5039673;28;20216;-71
2023/09/21 10:31:55;;;;;;;1.60;1.20;;;24.30;99.90;;;;;;5039057;28;20211;-70
2023/09/21 10:34:25;;;;;;;2.88;1.75;;;24.40;99.90;;;;;;5037529;28;20214;-69
2023/09/21 10:37:00;;;;;;;1.70;1.55;;;24.30;99.90;;;;;;5039852;28;20283;-69
2023/09/21 10:39:32;;;;;;;1.95;1.58;;;24.30;99.90;;;;;;5039468;28;20203;-68
2023/09/21 10:42:33;;;;;;;1.80;1.50;;;24.20;99.90;;;;;;5038989;28;20200;-72
2023/09/21 10:45:07;;;;;;;1.90;1.10;;;24.10;99.90;;;;;;5031344;28;20239;-71
2023/09/21 10:47:41;;;;;;;2.03;1.75;;;24.10;99.90;;;;;;5039323;28;20577;-68
2023/09/21 10:50:11;;;;;;;1.58;1.15;;;24.20;99.90;;;;;;5038821;28;20212;-68
2023/09/21 10:52:41;;;;;;;1.77;1.35;;;24.20;99.90;;;;;;5039200;28;20293;-67
2023/09/21 10:55:12;;;;;;;4.57;2.70;;;24.20;99.90;;;;;;5034655;28;20227;-69
2023/09/21 10:57:42;;;;;;;2.65;1.67;;;24.30;99.90;;;;;;5038997;28;20209;-67
2023/09/21 11:00:16;;;;;;;2.47;1.63;;;24.20;99.90;;;;;;5038255;28;20216;-67
2023/09/21 11:02:49;;;;;;;1.70;1.13;;;24.10;99.90;;;;;;5038666;28;20208;-71
2023/09/21 11:05:19;;;;;;;1.30;1.10;;;24.10;99.90;;;;;;5034889;28;20236;-70
2023/09/21 11:07:51;;;;;;;1.70;1.25;;;24.10;99.90;;;;;;5038369;28;20216;-70
2023/09/21 11:10:20;;;;;;;1.58;1.05;;;24.00;99.90;;;;;;5038278;28;20231;-71
2023/09/21 11:12:51;;;;;;;1.10;1.00;;;24.10;99.90;;;;;;5038219;28;20209;-70
2023/09/21 11:15:19;;;;;;;1.88;1.52;;;24.30;99.90;;;;;;5034794;28;20228;-67
2023/09/21 11:17:48;;;;;;;1.80;1.13;;;24.30;99.90;;;;;;5038761;28;20216;-73
2023/09/21 11:20:18;;;;;;;1.73;1.48;;;24.20;99.90;;;;;;5037619;28;20203;-70
2023/09/21 11:22:48;;;;;;;1.80;1.05;;;24.10;99.90;;;;;;5037783;28;20204;-69
2023/09/21 11:25:20;;;;;;;2.78;1.60;;;23.90;99.90;;;;;;5033954;28;20291;-69
2023/09/21 11:27:50;;;;;;;3.08;1.05;;;23.70;99.90;;;;;;5038593;28;20689;-70
2023/09/21 11:30:19;;;;;;;2.30;1.42;;;23.60;99.90;;;;;;5038400;28;20211;-70
2023/09/21 11:32:49;;;;;;;1.60;1.25;;;23.70;99.90;;;;;;5038525;28;20678;-72
2023/09/21 11:35:19;;;;;;;1.42;1.15;;;23.70;99.90;;;;;;5035147;28;20231;-69
2023/09/21 11:37:47;;;;;;;1.42;1.17;;;23.70;99.90;;;;;;5038516;28;20233;-69
2023/09/21 11:40:21;;;;;;;2.15;1.30;;;23.80;99.90;;;;;;5037850;28;20209;-71
2023/09/21 11:42:56;;;;;;;1.83;0.98;;;23.90;99.90;;;;;;5037554;28;20222;-70
2023/09/21 11:45:25;;;;;;;1.98;1.23;;;23.90;99.90;;;;;;5034520;28;20223;-70
2023/09/21 11:47:56;;;;;;;1.20;1.02;;;23.90;99.90;;;;;;5038045;28;20207;-73
2023/09/21 11:50:26;;;;;;;1.15;1.05;;;24.10;99.90;;;;;;5037883;28;20207;-69
2023/09/21 11:52:56;;;;;;;3.03;1.35;;;24.20;99.90;;;;;;5037573;28;21054;-71
2023/09/21 11:55:26;;;;;;;1.70;1.23;;;24.40;99.90;;;;;;5034078;28;20237;-69
2023/09/21 11:58:07;;;;;;;1.10;1.00;;;24.30;99.90;;;;;;5037670;28;20204;-70
2023/09/21 12:00:43;;;;;;;1.48;1.15;;;24.30;99.90;;;;;;5038253;28;20322;-71
2023/09/21 12:03:20;;;;;;;1.50;1.40;;;24.40;99.90;;;;;;5038389;28;20208;-71
2023/09/21 12:05:48;;;;;;;3.20;1.50;;;24.60;99.90;;;;;;5035547;28;20306;-72
2023/09/21 12:08:19;;;;;;;1.27;0.90;;;24.80;99.90;;;;;;5037594;28;20211;-68
2023/09/21 12:10:50;;;;;;;1.98;1.50;;;24.90;99.90;;;;;;5037795;28;20215;-71
2023/09/21 12:13:20;;;;;;;1.40;1.30;;;24.80;99.90;;;;;;5036809;28;20277;-71
2023/09/21 12:15:50;;;;;;;1.70;1.33;;;24.80;99.90;;;;;;5035142;28;20223;-69
2023/09/21 12:18:19;;;;;;;2.95;1.20;;;24.80;99.90;;;;;;5037854;28;20261;-69
2023/09/21 12:20:51;;;;;;;1.30;1.00;;;24.60;99.90;;;;;;5040970;28;20243;-69
2023/09/21 12:23:20;;;;;;;10.18;1.60;;;24.50;99.90;;;;;;5041409;28;20242;-70
2023/09/21 12:25:48;;;;;;;1.10;1.00;;;24.50;99.90;;;;;;5038974;28;20609;-72
2023/09/21 12:28:17;;;;;;;1.20;0.90;;;24.50;99.90;;;;;;5041748;28;20317;-72
2023/09/21 12:30:48;;;;;;;1.90;1.23;;;24.50;99.90;;;;;;5042503;28;20218;-72
2023/09/21 12:33:16;;;;;;;2.15;0.90;;;24.60;99.90;;;;;;5041742;28;20243;-69
2023/09/21 12:35:47;;;;;;;1.60;0.82;;;24.60;99.90;;;;;;5039290;28;20252;-72
2023/09/21 12:38:15;;;;;;;1.65;1.30;;;24.60;99.90;;;;;;5041611;28;20524;-71
2023/09/21 12:40:44;;;;;;;0.88;0.85;;;24.50;99.90;;;;;;5041288;28;20215;-69
2023/09/21 12:43:12;;;;;;;1.35;0.98;;;24.60;99.90;;;;;;5040722;28;20208;-72
2023/09/21 12:45:40;;;;;;;1.30;1.10;;;24.60;99.90;;;;;;5037470;28;20804;-68
2023/09/21 12:48:09;;;;;;;1.05;0.95;;;24.60;99.90;;;;;;5040804;28;20226;-68
2023/09/21 12:50:38;;;;;;;1.17;1.02;;;24.70;99.90;;;;;;5041145;28;20204;-67
2023/09/21 12:53:06;;;;;;;1.65;1.42;;;24.80;99.90;;;;;;5040629;28;20239;-69
2023/09/21 12:55:35;;;;;;;1.10;0.90;;;24.90;99.90;;;;;;5036844;28;20224;-71
2023/09/21 12:58:06;;;;;;;1.15;0.95;;;25.00;99.90;;;;;;5040484;28;20203;-71
2023/09/21 13:00:34;;;;;;;1.42;0.95;;;25.10;99.90;;;;;;5040888;28;20203;-71